createdAt,value
2023-02-04T00:00:06.021Z,15.52
2023-02-04T00:02:33.681Z,17.40
2023-02-04T00:05:01.364Z,17.90
2023-02-04T00:09:56.537Z,9.52
2023-02-04T00:12:24.237Z,12.02
2023-02-04T00:14:51.935Z,8.13
2023-02-04T00:17:21.119Z,9.77
2023-02-04T00:19:48.858Z,6.32
2023-02-04T00:22:16.525Z,7.72
2023-02-04T00:27:16.156Z,6.57
2023-02-04T00:29:43.846Z,6.07
2023-02-04T00:34:43.910Z,13.43
2023-02-04T00:37:11.616Z,6.43
2023-02-04T00:42:07.084Z,12.85
2023-02-04T00:44:37.028Z,8.90
2023-02-04T00:47:04.779Z,7.85
2023-02-04T00:49:32.533Z,11.15
2023-02-04T00:52:02.537Z,7.55
2023-02-04T00:54:30.251Z,8.48
2023-02-04T00:56:57.965Z,9.20
2023-02-04T00:59:25.997Z,4.60
2023-02-04T01:01:53.728Z,3.92
2023-02-04T01:04:21.449Z,2.92
2023-02-04T01:06:49.210Z,2.17
2023-02-04T01:11:45.731Z,1.13
2023-02-04T01:14:13.591Z,3.70
2023-02-04T01:16:41.428Z,1.65
2023-02-04T01:19:09.307Z,1.98
2023-02-04T01:21:39.459Z,3.60
2023-02-04T01:24:08.792Z,2.05
2023-02-04T01:26:57.817Z,2.00
2023-02-04T01:29:28.066Z,4.28
2023-02-04T01:34:25.958Z,2.53
2023-02-04T01:36:55.364Z,1.88
2023-02-04T01:39:23.083Z,2.92
2023-02-04T01:41:50.780Z,2.35
2023-02-04T01:44:19.857Z,1.60
2023-02-04T01:46:47.582Z,2.72
2023-02-04T01:49:15.364Z,1.52
2023-02-04T01:51:43.139Z,3.28
2023-02-04T01:54:11.665Z,1.30
2023-02-04T01:56:40.625Z,0.98
2023-02-04T01:59:12.293Z,5.82
2023-02-04T02:01:42.540Z,2.20
2023-02-04T02:04:13.898Z,5.15
2023-02-04T02:06:43.987Z,1.92
2023-02-04T02:09:11.686Z,2.30
2023-02-04T02:11:39.418Z,2.38
2023-02-04T02:14:07.290Z,2.63
2023-02-04T02:16:35.069Z,2.10
2023-02-04T02:19:05.049Z,2.90
2023-02-04T02:21:37.860Z,2.17
2023-02-04T02:24:24.636Z,1.75
2023-02-04T02:26:54.515Z,2.25
2023-02-04T02:29:22.569Z,2.00
2023-02-04T02:31:50.666Z,2.38
2023-02-04T02:34:18.471Z,2.38
2023-02-04T02:36:46.244Z,2.92
2023-02-04T02:39:15.427Z,2.45
2023-02-04T02:41:43.124Z,3.42
2023-02-04T02:44:11.121Z,1.95
2023-02-04T02:46:39.015Z,2.70
2023-02-04T02:49:07.475Z,2.50
2023-02-04T02:51:35.158Z,2.85
2023-02-04T02:54:04.381Z,2.40
2023-02-04T02:56:34.898Z,2.47
2023-02-04T02:59:13.450Z,1.58
2023-02-04T03:01:41.325Z,2.60
2023-02-04T03:04:10.518Z,5.20
2023-02-04T03:06:38.289Z,4.13
2023-02-04T03:11:34.993Z,2.60
2023-02-04T03:14:02.882Z,2.40
2023-02-04T03:16:33.188Z,2.20
2023-02-04T03:19:01.165Z,1.50
2023-02-04T03:21:29.115Z,2.05
2023-02-04T03:23:57.442Z,3.97
2023-02-04T03:26:25.896Z,2.13
2023-02-04T03:28:59.937Z,2.58
2023-02-04T03:31:27.808Z,3.15
2023-02-04T03:33:55.578Z,2.58
2023-02-04T03:38:52.185Z,2.92
2023-02-04T03:41:19.901Z,3.20
2023-02-04T03:46:16.614Z,2.58
2023-02-04T03:48:44.339Z,2.60
2023-02-04T03:53:39.509Z,2.17
2023-02-04T03:58:34.734Z,2.25
2023-02-04T04:03:31.249Z,2.90
2023-02-04T04:05:58.927Z,2.53
2023-02-04T04:10:54.106Z,3.03
2023-02-04T04:15:49.296Z,2.92
2023-02-04T04:20:46.249Z,4.28
2023-02-04T04:23:13.920Z,1.80
2023-02-04T04:28:09.141Z,6.00
2023-02-04T04:33:04.487Z,2.15
2023-02-04T04:38:01.140Z,2.78
2023-02-04T04:40:29.319Z,4.57
2023-02-04T04:42:57.154Z,3.88
2023-02-04T04:47:52.386Z,2.58
2023-02-04T04:52:47.582Z,2.63
2023-02-04T04:55:16.979Z,2.60
2023-02-04T04:57:44.729Z,3.08
2023-02-04T05:02:39.968Z,2.20
2023-02-04T05:07:35.288Z,3.72
2023-02-04T05:10:02.995Z,2.53
2023-02-04T05:14:59.576Z,4.88
2023-02-04T05:17:28.707Z,3.25
2023-02-04T05:19:56.506Z,3.40
2023-02-04T05:24:51.788Z,3.30
2023-02-04T05:27:19.946Z,3.33
2023-02-04T05:29:47.634Z,3.03
2023-02-04T05:34:44.257Z,3.28
2023-02-04T05:37:11.983Z,2.20
2023-02-04T05:42:07.237Z,2.78
2023-02-04T05:47:02.395Z,3.28
2023-02-04T05:49:31.512Z,2.65
2023-02-04T05:52:00.582Z,5.78
2023-02-04T05:54:28.262Z,2.88
2023-02-04T05:56:55.989Z,3.80
2023-02-04T06:01:51.128Z,3.38
2023-02-04T06:04:19.085Z,3.17
2023-02-04T06:06:46.813Z,3.35
2023-02-04T06:09:15.898Z,5.53
2023-02-04T06:11:43.596Z,4.63
2023-02-04T06:14:11.743Z,6.57
2023-02-04T06:16:39.630Z,2.90
2023-02-04T06:19:07.358Z,3.53
2023-02-04T06:21:35.075Z,4.40
2023-02-04T06:24:03.838Z,3.92
2023-02-04T06:26:33.660Z,3.03
2023-02-04T06:29:01.444Z,3.42
2023-02-04T06:33:56.914Z,3.30
2023-02-04T06:36:24.598Z,5.18
2023-02-04T06:38:52.310Z,3.17
2023-02-04T06:41:20.100Z,3.83
2023-02-04T06:46:16.694Z,3.42
2023-02-04T06:48:44.378Z,7.05
2023-02-04T06:51:12.068Z,3.42
2023-02-04T06:53:40.293Z,3.88
2023-02-04T06:56:07.981Z,7.43
2023-02-04T06:58:35.658Z,5.63
2023-02-04T07:01:03.379Z,3.60
2023-02-04T07:03:32.437Z,4.53
2023-02-04T07:06:00.151Z,4.20
2023-02-04T07:10:55.385Z,2.97
2023-02-04T07:13:23.060Z,3.97
2023-02-04T07:15:52.494Z,6.72
2023-02-04T07:18:20.726Z,5.50
2023-02-04T07:20:49.736Z,8.85
2023-02-04T07:23:17.399Z,4.13
2023-02-04T07:25:45.142Z,4.32
2023-02-04T07:30:40.491Z,7.05
2023-02-04T07:33:08.369Z,4.25
2023-02-04T07:35:37.919Z,4.72
2023-02-04T07:38:07.040Z,4.50
2023-02-04T07:40:35.218Z,4.05
2023-02-04T07:43:03.042Z,3.15
2023-02-04T07:45:30.959Z,5.60
2023-02-04T07:50:26.222Z,4.00
2023-02-04T07:55:25.545Z,4.60
2023-02-04T07:57:53.350Z,5.03
2023-02-04T08:00:21.276Z,3.88
2023-02-04T08:02:49.117Z,3.60
2023-02-04T08:05:19.538Z,4.18
2023-02-04T08:07:47.233Z,3.58
2023-02-04T08:10:14.940Z,3.83
2023-02-04T08:15:11.598Z,2.72
2023-02-04T08:17:39.241Z,4.20
2023-02-04T08:20:07.760Z,4.78
2023-02-04T08:22:35.983Z,6.22
2023-02-04T08:25:05.204Z,4.47
2023-02-04T08:27:32.892Z,2.75
2023-02-04T08:32:31.115Z,5.07
2023-02-04T08:35:01.742Z,3.28
2023-02-04T08:37:29.480Z,3.80
2023-02-04T08:39:57.166Z,3.88
2023-02-04T08:44:52.389Z,3.72
2023-02-04T08:47:20.057Z,3.40
2023-02-04T08:49:51.725Z,3.38
2023-02-04T08:52:19.955Z,2.92
2023-02-04T08:54:47.632Z,3.38
2023-02-04T08:59:42.907Z,3.85
2023-02-04T09:02:12.861Z,2.30
2023-02-04T09:04:40.612Z,4.80
2023-02-04T09:07:09.683Z,3.53
2023-02-04T09:09:37.416Z,4.13
2023-02-04T09:14:32.654Z,2.92
2023-02-04T09:19:27.858Z,3.40
2023-02-04T09:21:55.718Z,2.80
2023-02-04T09:24:24.773Z,3.08
2023-02-04T09:26:52.471Z,3.15
2023-02-04T09:29:20.209Z,3.63
2023-02-04T09:31:48.047Z,5.10
2023-02-04T09:34:15.829Z,2.40
2023-02-04T09:36:43.932Z,2.78
2023-02-04T09:39:11.651Z,2.38
2023-02-04T09:44:13.504Z,2.08
2023-02-04T09:46:41.214Z,2.55
2023-02-04T09:49:11.267Z,1.67
2023-02-04T09:51:38.993Z,1.90
2023-02-04T09:54:09.785Z,1.52
2023-02-04T09:56:37.539Z,2.90
2023-02-04T09:59:05.604Z,2.92
2023-02-04T10:01:34.620Z,1.48
2023-02-04T10:04:03.000Z,1.88
2023-02-04T10:06:30.997Z,0.88
2023-02-04T10:08:58.727Z,3.42
2023-02-04T10:11:27.470Z,1.63
2023-02-04T10:13:56.093Z,2.25
2023-02-04T10:16:29.729Z,2.83
2023-02-04T10:18:59.743Z,1.83
2023-02-04T10:21:29.069Z,2.65
2023-02-04T10:23:57.693Z,2.95
2023-02-04T10:26:27.254Z,2.10
2023-02-04T10:28:59.216Z,2.13
2023-02-04T10:31:30.878Z,1.63
2023-02-04T10:34:11.657Z,1.92
2023-02-04T10:36:39.766Z,2.15
2023-02-04T10:39:11.434Z,2.05
2023-02-04T10:41:40.089Z,3.33
2023-02-04T10:44:08.308Z,1.42
2023-02-04T10:46:36.038Z,1.70
2023-02-04T10:49:05.066Z,1.35
2023-02-04T10:51:34.244Z,2.92
2023-02-04T10:54:19.237Z,3.13
2023-02-04T10:56:46.953Z,4.75
2023-02-04T10:59:21.899Z,1.42
2023-02-04T11:01:50.004Z,2.33
2023-02-04T11:04:17.703Z,2.70
2023-02-04T11:07:10.621Z,2.05
2023-02-04T11:09:42.031Z,1.70
2023-02-04T11:12:20.121Z,3.83
2023-02-04T11:14:55.929Z,2.35
2023-02-04T11:17:29.829Z,4.35
2023-02-04T11:19:58.102Z,1.98
2023-02-04T11:22:37.262Z,2.55
2023-02-04T11:25:30.021Z,2.35
2023-02-04T11:27:57.783Z,4.80
2023-02-04T11:30:31.414Z,2.38
2023-02-04T11:35:28.634Z,2.55
2023-02-04T11:37:57.029Z,3.15
2023-02-04T11:40:27.743Z,1.30
2023-02-04T11:42:59.296Z,3.00
2023-02-04T11:45:28.450Z,3.17
2023-02-04T11:47:57.912Z,2.08
2023-02-04T11:50:27.118Z,3.05
2023-02-04T11:52:55.605Z,2.97
2023-02-04T11:55:23.389Z,2.88
2023-02-04T11:57:53.614Z,4.60
2023-02-04T12:00:22.395Z,3.90
2023-02-04T12:02:51.008Z,3.30
2023-02-04T12:05:19.626Z,2.40
2023-02-04T12:07:47.914Z,3.17
2023-02-04T12:10:23.196Z,2.13
2023-02-04T12:12:52.008Z,1.85
2023-02-04T12:15:24.401Z,9.52
2023-02-04T12:18:01.625Z,2.10
2023-02-04T12:20:29.344Z,3.10
2023-02-04T12:22:57.312Z,3.55
2023-02-04T12:25:25.944Z,2.42
2023-02-04T12:27:54.446Z,0.95
2023-02-04T12:30:23.630Z,2.83
2023-02-04T12:32:51.335Z,2.40
2023-02-04T12:35:19.138Z,2.38
2023-02-04T12:37:46.879Z,1.88
2023-02-04T12:40:16.058Z,2.25
2023-02-04T12:42:44.078Z,2.35
2023-02-04T12:45:12.466Z,2.90
2023-02-04T12:47:41.849Z,1.05
2023-02-04T12:50:10.752Z,3.00
2023-02-04T12:52:39.049Z,2.58
2023-02-04T12:55:07.486Z,2.13
2023-02-04T12:57:35.720Z,3.42
2023-02-04T13:00:03.484Z,3.05
2023-02-04T13:02:31.855Z,2.25
2023-02-04T13:05:00.892Z,2.35
2023-02-04T13:07:28.582Z,1.73
2023-02-04T13:09:57.319Z,2.40
2023-02-04T13:12:25.029Z,2.78
2023-02-04T13:14:52.737Z,1.17
2023-02-04T13:17:20.839Z,3.80
2023-02-04T13:19:48.583Z,2.75
2023-02-04T13:22:17.746Z,1.30
2023-02-04T13:24:47.505Z,4.97
2023-02-04T13:27:15.609Z,2.63
2023-02-04T13:29:43.317Z,1.38
2023-02-04T13:32:11.086Z,4.00
2023-02-04T13:34:38.795Z,1.65
2023-02-04T13:37:06.593Z,1.83
2023-02-04T13:39:35.752Z,2.65
2023-02-04T13:42:04.568Z,3.10
2023-02-04T13:44:33.664Z,2.30
2023-02-04T13:47:01.362Z,1.58
2023-02-04T13:49:29.331Z,1.98
2023-02-04T13:51:57.035Z,8.60
2023-02-04T13:54:25.196Z,2.15
2023-02-04T13:56:54.251Z,3.22
2023-02-04T13:59:21.968Z,2.13
2023-02-04T14:01:49.706Z,1.55
2023-02-04T14:04:17.408Z,1.33
2023-02-04T14:06:45.043Z,2.72
2023-02-04T14:09:12.999Z,1.45
2023-02-04T14:11:40.954Z,2.10
2023-02-04T14:14:10.014Z,3.45
2023-02-04T14:16:38.127Z,2.95
2023-02-04T14:19:06.124Z,1.75
2023-02-04T14:21:33.933Z,1.67
2023-02-04T14:24:02.382Z,1.20
2023-02-04T14:26:30.147Z,2.03
2023-02-04T14:28:57.918Z,1.67
2023-02-04T14:31:26.964Z,1.27
2023-02-04T14:33:55.195Z,2.55
2023-02-04T14:36:23.067Z,2.45
2023-02-04T14:38:50.751Z,1.83
2023-02-04T14:41:21.074Z,1.70
2023-02-04T14:43:49.075Z,1.40
2023-02-04T14:46:16.837Z,1.45
2023-02-04T14:48:46.052Z,1.50
2023-02-04T14:51:13.802Z,2.80
2023-02-04T14:53:46.110Z,2.50
2023-02-04T14:56:15.952Z,3.58
2023-02-04T14:58:43.657Z,2.88
2023-02-04T15:01:11.510Z,2.10
2023-02-04T15:03:39.253Z,4.03
2023-02-04T15:06:08.569Z,2.03
2023-02-04T15:08:36.269Z,1.10
2023-02-04T15:11:03.980Z,2.20
2023-02-04T15:13:31.797Z,2.55
2023-02-04T15:15:59.556Z,2.10
2023-02-04T15:18:27.546Z,4.55
2023-02-04T15:20:55.223Z,1.90
2023-02-04T15:23:24.294Z,1.58
2023-02-04T15:25:57.248Z,2.17
2023-02-04T15:28:25.235Z,1.83
2023-02-04T15:30:53.516Z,2.83
2023-02-04T15:33:21.331Z,2.10
2023-02-04T15:35:49.088Z,2.15
2023-02-04T15:38:16.809Z,3.78
2023-02-04T15:40:45.889Z,1.90
2023-02-04T15:43:13.611Z,2.85
2023-02-04T15:45:43.900Z,2.28
2023-02-04T15:48:11.702Z,2.70
2023-02-04T15:50:39.667Z,1.70
2023-02-04T15:53:07.640Z,2.08
2023-02-04T15:55:35.719Z,4.22
2023-02-04T15:58:04.727Z,4.07
2023-02-04T16:00:32.772Z,3.03
2023-02-04T16:03:01.138Z,3.15
2023-02-04T16:05:29.181Z,3.22
2023-02-04T16:07:56.886Z,4.15
2023-02-04T16:10:25.248Z,3.05
2023-02-04T16:12:54.932Z,4.38
2023-02-04T16:15:24.151Z,2.03
2023-02-04T16:17:52.065Z,3.97
2023-02-04T16:20:19.967Z,2.60
2023-02-04T16:22:47.697Z,4.15
2023-02-04T16:27:43.009Z,3.13
2023-02-04T16:30:12.158Z,3.38
2023-02-04T16:32:41.213Z,2.75
2023-02-04T16:35:09.257Z,2.42
2023-02-04T16:37:37.672Z,3.28
2023-02-04T16:40:05.725Z,3.83
2023-02-04T16:42:33.423Z,3.42
2023-02-04T16:47:28.681Z,4.53
2023-02-04T16:50:00.862Z,9.65
2023-02-04T16:52:28.608Z,3.92
2023-02-04T16:57:23.835Z,2.50
2023-02-04T17:02:19.085Z,2.45
2023-02-04T17:07:15.731Z,6.72
2023-02-04T17:09:43.778Z,4.85
2023-02-04T17:12:11.526Z,4.70
2023-02-04T17:14:41.029Z,7.85
2023-02-04T17:17:08.974Z,3.92
2023-02-04T17:19:36.721Z,5.40
2023-02-04T17:24:33.216Z,4.13
2023-02-04T17:27:03.228Z,3.40
2023-02-04T17:29:30.936Z,4.50
2023-02-04T17:34:26.442Z,5.00
2023-02-04T17:36:54.323Z,7.28
2023-02-04T17:39:21.995Z,4.55
2023-02-04T17:44:20.000Z,3.97
2023-02-04T17:46:47.913Z,3.88
2023-02-04T17:49:16.150Z,3.70
2023-02-04T17:51:43.931Z,3.92
2023-02-04T17:54:12.526Z,2.63
2023-02-04T17:56:40.240Z,4.55
2023-02-04T18:01:37.086Z,3.40
2023-02-04T18:04:05.350Z,3.67
2023-02-04T18:06:33.030Z,4.07
2023-02-04T18:11:30.699Z,5.10
2023-02-04T18:14:00.810Z,3.05
2023-02-04T18:16:30.312Z,8.80
2023-02-04T18:19:02.587Z,4.05
2023-02-04T18:21:32.224Z,3.15
2023-02-04T18:24:07.796Z,4.35
2023-02-04T18:26:35.592Z,3.75
2023-02-04T18:29:13.104Z,3.00
2023-02-04T18:31:44.759Z,4.82
2023-02-04T18:34:16.826Z,5.20
2023-02-04T18:36:44.575Z,7.07
2023-02-04T18:41:41.355Z,4.38
2023-02-04T18:44:17.896Z,7.68
2023-02-04T18:46:47.913Z,6.80
2023-02-04T18:49:23.848Z,9.18
2023-02-04T18:51:52.137Z,8.50
2023-02-04T18:54:30.883Z,9.23
2023-02-04T18:57:09.233Z,10.20
2023-02-04T18:59:36.945Z,21.05
2023-02-04T19:02:17.224Z,15.45
2023-02-04T19:04:46.349Z,13.77
2023-02-04T19:07:14.512Z,17.40
2023-02-04T19:09:42.239Z,23.00
2023-02-04T19:14:38.914Z,15.13
2023-02-04T19:17:17.738Z,19.55
2023-02-04T19:19:48.598Z,15.30
2023-02-04T19:22:20.389Z,10.15
2023-02-04T19:24:48.267Z,9.48
2023-02-04T19:27:29.074Z,7.63
2023-02-04T19:29:57.436Z,7.88
2023-02-04T19:32:27.445Z,6.43
2023-02-04T19:34:58.761Z,8.45
2023-02-04T19:37:27.663Z,6.03
2023-02-04T19:39:56.430Z,8.60
2023-02-04T19:42:29.052Z,6.22
2023-02-04T19:44:59.310Z,6.88
2023-02-04T19:47:28.566Z,6.85
2023-02-04T19:50:15.942Z,9.65
2023-02-04T19:52:45.028Z,8.52
2023-02-04T19:55:24.743Z,8.80
2023-02-04T19:57:56.667Z,6.55
2023-02-04T20:00:42.266Z,4.80
2023-02-04T20:03:27.672Z,6.00
2023-02-04T20:05:59.208Z,6.05
2023-02-04T20:08:47.720Z,6.65
2023-02-04T20:11:45.011Z,9.23
2023-02-04T20:14:22.271Z,4.75
2023-02-04T20:16:51.654Z,6.13
2023-02-04T20:19:19.968Z,9.20
2023-02-04T20:21:53.834Z,7.57
2023-02-04T20:24:21.525Z,14.75
2023-02-04T20:29:20.299Z,13.02
2023-02-04T20:31:48.043Z,8.20
2023-02-04T20:36:43.664Z,7.13
2023-02-04T20:39:26.271Z,7.70
2023-02-04T20:41:55.331Z,5.85
2023-02-04T20:44:25.868Z,6.03
2023-02-04T20:46:55.864Z,7.63
2023-02-04T20:49:24.700Z,6.40
2023-02-04T20:51:54.986Z,6.50
2023-02-04T20:54:22.719Z,6.30
2023-02-04T20:59:28.463Z,7.25
2023-02-04T21:01:56.743Z,6.38
2023-02-04T21:04:25.966Z,4.22
2023-02-04T21:06:54.900Z,4.57
2023-02-04T21:09:24.142Z,5.40
2023-02-04T21:11:52.282Z,8.85
2023-02-04T21:14:20.064Z,6.82
2023-02-04T21:16:49.118Z,5.60
2023-02-04T21:19:16.958Z,5.07
2023-02-04T21:21:44.917Z,6.32
2023-02-04T21:26:40.414Z,7.00
2023-02-04T21:29:08.211Z,8.02
2023-02-04T21:34:05.950Z,6.43
2023-02-04T21:36:33.791Z,9.35
2023-02-04T21:39:01.505Z,6.07
2023-02-04T21:43:56.714Z,5.65
2023-02-04T21:46:24.432Z,7.95
2023-02-04T21:51:21.044Z,4.85
2023-02-04T21:53:48.835Z,9.50
2023-02-04T21:56:16.659Z,6.85
2023-02-04T21:58:44.387Z,5.15
2023-02-04T22:03:39.704Z,7.38
2023-02-04T22:08:36.281Z,5.82
2023-02-04T22:11:03.986Z,5.28
2023-02-04T22:13:49.384Z,4.35
2023-02-04T22:16:17.179Z,6.35
2023-02-04T22:21:12.400Z,5.55
2023-02-04T22:23:41.411Z,6.25
2023-02-04T22:26:09.254Z,7.60
2023-02-04T22:28:36.953Z,6.15
2023-02-04T22:31:04.771Z,6.25
2023-02-04T22:36:00.142Z,5.97
2023-02-04T22:40:56.865Z,7.10
2023-02-04T22:43:24.543Z,5.88
2023-02-04T22:45:52.235Z,6.55
2023-02-04T22:48:19.954Z,5.72
2023-02-04T22:50:47.650Z,8.65
2023-02-04T22:53:15.360Z,6.45
2023-02-04T22:55:43.102Z,6.80
2023-02-04T23:00:41.769Z,8.50
2023-02-04T23:03:09.515Z,6.30
2023-02-04T23:05:37.569Z,9.82
2023-02-04T23:08:05.419Z,6.63
2023-02-04T23:10:34.236Z,9.65
2023-02-04T23:15:29.568Z,11.38
2023-02-04T23:17:59.458Z,7.68
2023-02-04T23:20:27.556Z,7.57
2023-02-04T23:22:55.278Z,7.80
2023-02-04T23:25:23.602Z,7.68
2023-02-04T23:27:51.362Z,9.00
2023-02-04T23:30:19.764Z,6.10
2023-02-04T23:32:47.546Z,10.90
2023-02-04T23:35:16.636Z,9.43
2023-02-04T23:37:44.323Z,6.28
2023-02-04T23:40:12.346Z,8.45
2023-02-04T23:42:40.103Z,7.07
2023-02-04T23:47:35.321Z,5.68
2023-02-04T23:50:03.089Z,6.97
2023-02-04T23:54:59.688Z,7.38
2023-02-04T23:57:27.592Z,7.82
2023-02-04T23:59:55.352Z,7.10
